sensor_id;sensor_type;location;lat;lon;timestamp;pressure;altitude;pressure_sealevel;temperature;humidity
56719;BME280;42597;40.636;0.278;2022-07-29T00:00:12;97075.25;;;26.23;88.98
56719;BME280;42597;40.636;0.278;2022-07-29T00:02:37;97081.09;;;26.25;88.84
56719;BME280;42597;40.636;0.278;2022-07-29T00:05:04;97075.13;;;26.04;90.34
56719;BME280;42597;40.636;0.278;2022-07-29T00:07:30;97078.06;;;25.88;91.39
56719;BME280;42597;40.636;0.278;2022-07-29T00:09:56;97079.81;;;25.95;90.69
56719;BME280;42597;40.636;0.278;2022-07-29T00:12:23;97075.06;;;25.95;90.50
56719;BME280;42597;40.636;0.278;2022-07-29T00:14:50;97066.94;;;26.01;89.88
56719;BME280;42597;40.636;0.278;2022-07-29T00:17:16;97076.09;;;25.41;92.57
56719;BME280;42597;40.636;0.278;2022-07-29T00:19:41;97079.25;;;25.65;92.31
56719;BME280;42597;40.636;0.278;2022-07-29T00:22:07;97078.88;;;25.76;91.34
56719;BME280;42597;40.636;0.278;2022-07-29T00:24:33;97069.66;;;25.92;89.71
56719;BME280;42597;40.636;0.278;2022-07-29T00:26:58;97070.41;;;25.92;89.16
56719;BME280;42597;40.636;0.278;2022-07-29T00:29:24;97080.53;;;25.86;89.71
56719;BME280;42597;40.636;0.278;2022-07-29T00:31:50;97085.28;;;25.73;90.33
56719;BME280;42597;40.636;0.278;2022-07-29T00:34:16;97077.00;;;25.86;89.43
56719;BME280;42597;40.636;0.278;2022-07-29T00:37:00;97091.63;;;25.73;89.67
56719;BME280;42597;40.636;0.278;2022-07-29T00:39:26;97084.19;;;25.83;89.12
56719;BME280;42597;40.636;0.278;2022-07-29T00:41:52;97089.63;;;25.74;88.98
56719;BME280;42597;40.636;0.278;2022-07-29T00:44:17;97083.88;;;25.68;88.85
56719;BME280;42597;40.636;0.278;2022-07-29T00:46:43;97078.91;;;25.16;90.61
56719;BME280;42597;40.636;0.278;2022-07-29T00:49:09;97081.53;;;24.68;95.19
56719;BME280;42597;40.636;0.278;2022-07-29T00:51:38;97069.03;;;24.63;95.14
56719;BME280;42597;40.636;0.278;2022-07-29T00:54:05;97078.41;;;24.41;97.56
56719;BME280;42597;40.636;0.278;2022-07-29T00:56:31;97068.81;;;24.71;96.67
56719;BME280;42597;40.636;0.278;2022-07-29T00:58:58;97068.72;;;25.25;92.44
56719;BME280;42597;40.636;0.278;2022-07-29T01:01:23;97072.88;;;25.43;90.58
56719;BME280;42597;40.636;0.278;2022-07-29T01:03:49;97075.38;;;25.63;88.28
56719;BME280;42597;40.636;0.278;2022-07-29T01:06:19;97077.31;;;24.76;93.56
56719;BME280;42597;40.636;0.278;2022-07-29T01:08:45;97078.56;;;24.75;94.93
56719;BME280;42597;40.636;0.278;2022-07-29T01:11:14;97077.78;;;25.00;93.80
56719;BME280;42597;40.636;0.278;2022-07-29T01:13:40;97072.13;;;25.42;90.19
56719;BME280;42597;40.636;0.278;2022-07-29T01:16:32;97067.28;;;25.68;88.15
56719;BME280;42597;40.636;0.278;2022-07-29T01:19:17;97069.31;;;25.55;88.30
56719;BME280;42597;40.636;0.278;2022-07-29T01:21:51;97067.66;;;25.57;87.66
56719;BME280;42597;40.636;0.278;2022-07-29T01:29:49;97052.63;;;25.80;85.90
56719;BME280;42597;40.636;0.278;2022-07-29T01:32:24;97051.88;;;25.80;85.84
56719;BME280;42597;40.636;0.278;2022-07-29T01:35:28;97054.38;;;25.52;87.77
56719;BME280;42597;40.636;0.278;2022-07-29T01:38:23;97059.00;;;25.55;87.10
56719;BME280;42597;40.636;0.278;2022-07-29T01:40:54;97057.72;;;25.47;87.65
56719;BME280;42597;40.636;0.278;2022-07-29T01:43:32;97057.00;;;25.56;86.86
56719;BME280;42597;40.636;0.278;2022-07-29T01:46:07;97052.19;;;25.47;87.16
56719;BME280;42597;40.636;0.278;2022-07-29T01:48:40;97060.81;;;25.49;87.08
56719;BME280;42597;40.636;0.278;2022-07-29T01:54:34;97059.16;;;25.39;87.84
56719;BME280;42597;40.636;0.278;2022-07-29T01:57:01;97072.19;;;25.51;86.93
56719;BME280;42597;40.636;0.278;2022-07-29T01:59:29;97067.28;;;25.21;87.61
56719;BME280;42597;40.636;0.278;2022-07-29T02:01:57;97079.34;;;25.14;89.28
56719;BME280;42597;40.636;0.278;2022-07-29T02:04:24;97069.91;;;25.37;87.85
56719;BME280;42597;40.636;0.278;2022-07-29T02:06:52;97074.97;;;25.51;86.94
56719;BME280;42597;40.636;0.278;2022-07-29T02:09:21;97071.13;;;25.49;86.60
56719;BME280;42597;40.636;0.278;2022-07-29T02:11:51;97070.84;;;25.56;86.00
56719;BME280;42597;40.636;0.278;2022-07-29T02:14:18;97076.69;;;25.71;85.44
56719;BME280;42597;40.636;0.278;2022-07-29T02:16:47;97068.78;;;25.47;86.33
56719;BME280;42597;40.636;0.278;2022-07-29T02:19:14;97073.19;;;25.45;86.66
56719;BME280;42597;40.636;0.278;2022-07-29T02:21:41;97061.47;;;25.53;86.32
56719;BME280;42597;40.636;0.278;2022-07-29T02:24:11;97074.06;;;25.54;86.03
56719;BME280;42597;40.636;0.278;2022-07-29T02:26:38;97067.34;;;25.43;86.60
56719;BME280;42597;40.636;0.278;2022-07-29T02:29:06;97066.00;;;25.47;86.49
56719;BME280;42597;40.636;0.278;2022-07-29T02:31:34;97070.00;;;25.46;86.56
56719;BME280;42597;40.636;0.278;2022-07-29T02:34:06;97072.19;;;25.51;86.11
56719;BME280;42597;40.636;0.278;2022-07-29T02:36:33;97074.53;;;25.40;86.92
56719;BME280;42597;40.636;0.278;2022-07-29T02:39:00;97067.94;;;24.99;89.64
56719;BME280;42597;40.636;0.278;2022-07-29T02:42:00;97068.03;;;24.96;90.93
56719;BME280;42597;40.636;0.278;2022-07-29T02:44:27;97064.94;;;25.32;87.90
56719;BME280;42597;40.636;0.278;2022-07-29T02:47:18;97071.03;;;25.27;87.78
56719;BME280;42597;40.636;0.278;2022-07-29T02:52:21;97072.00;;;25.46;86.54
56719;BME280;42597;40.636;0.278;2022-07-29T02:54:55;97059.63;;;25.38;86.42
56719;BME280;42597;40.636;0.278;2022-07-29T02:57:41;97065.28;;;25.34;86.85
56719;BME280;42597;40.636;0.278;2022-07-29T03:00:09;97068.34;;;25.36;86.17
56719;BME280;42597;40.636;0.278;2022-07-29T03:02:38;97063.47;;;25.40;85.44
56719;BME280;42597;40.636;0.278;2022-07-29T03:05:07;97058.97;;;25.33;85.73
56719;BME280;42597;40.636;0.278;2022-07-29T03:07:35;97055.28;;;25.36;85.47
56719;BME280;42597;40.636;0.278;2022-07-29T03:10:02;97056.09;;;25.24;86.04
56719;BME280;42597;40.636;0.278;2022-07-29T03:12:29;97057.28;;;25.36;85.58
56719;BME280;42597;40.636;0.278;2022-07-29T03:14:56;97064.03;;;25.35;85.08
56719;BME280;42597;40.636;0.278;2022-07-29T03:17:23;97049.78;;;25.24;85.83
56719;BME280;42597;40.636;0.278;2022-07-29T03:19:49;97047.13;;;25.33;85.00
56719;BME280;42597;40.636;0.278;2022-07-29T03:22:15;97059.88;;;25.18;86.07
56719;BME280;42597;40.636;0.278;2022-07-29T03:24:41;97053.66;;;25.26;85.52
56719;BME280;42597;40.636;0.278;2022-07-29T03:27:07;97057.44;;;25.20;85.06
56719;BME280;42597;40.636;0.278;2022-07-29T03:29:32;97057.66;;;25.00;86.15
56719;BME280;42597;40.636;0.278;2022-07-29T03:31:58;97052.00;;;25.03;86.53
56719;BME280;42597;40.636;0.278;2022-07-29T03:34:24;97052.66;;;25.33;85.03
56719;BME280;42597;40.636;0.278;2022-07-29T03:36:50;97056.47;;;25.48;83.92
56719;BME280;42597;40.636;0.278;2022-07-29T03:39:20;97060.41;;;25.38;83.65
56719;BME280;42597;40.636;0.278;2022-07-29T03:41:49;97062.84;;;24.59;87.77
56719;BME280;42597;40.636;0.278;2022-07-29T03:44:17;97062.56;;;23.99;92.70
56719;BME280;42597;40.636;0.278;2022-07-29T03:46:45;97067.66;;;24.30;90.69
56719;BME280;42597;40.636;0.278;2022-07-29T03:49:15;97068.81;;;24.71;89.14
56719;BME280;42597;40.636;0.278;2022-07-29T03:51:42;97067.06;;;25.02;86.42
56719;BME280;42597;40.636;0.278;2022-07-29T03:54:08;97061.66;;;25.11;85.87
56719;BME280;42597;40.636;0.278;2022-07-29T03:56:38;97063.31;;;25.22;85.27
56719;BME280;42597;40.636;0.278;2022-07-29T03:59:05;97053.81;;;25.10;85.42
56719;BME280;42597;40.636;0.278;2022-07-29T04:01:33;97064.19;;;24.93;85.41
56719;BME280;42597;40.636;0.278;2022-07-29T04:04:01;97057.75;;;24.96;85.95
56719;BME280;42597;40.636;0.278;2022-07-29T04:06:27;97063.06;;;25.03;85.76
56719;BME280;42597;40.636;0.278;2022-07-29T04:08:52;97064.94;;;25.06;85.60
56719;BME280;42597;40.636;0.278;2022-07-29T04:11:18;97061.53;;;25.02;85.95
56719;BME280;42597;40.636;0.278;2022-07-29T04:13:44;97062.53;;;24.83;86.70
56719;BME280;42597;40.636;0.278;2022-07-29T04:16:10;97068.81;;;24.71;87.92
56719;BME280;42597;40.636;0.278;2022-07-29T04:18:35;97062.63;;;24.12;92.71
56719;BME280;42597;40.636;0.278;2022-07-29T04:21:01;97070.59;;;23.81;95.56
56719;BME280;42597;40.636;0.278;2022-07-29T04:23:30;97069.94;;;23.44;98.32
56719;BME280;42597;40.636;0.278;2022-07-29T04:25:59;97069.13;;;23.44;99.33
56719;BME280;42597;40.636;0.278;2022-07-29T04:28:26;97068.09;;;23.70;97.74
56719;BME280;42597;40.636;0.278;2022-07-29T04:30:52;97066.50;;;24.14;94.19
56719;BME280;42597;40.636;0.278;2022-07-29T04:33:17;97062.59;;;23.70;95.95
56719;BME280;42597;40.636;0.278;2022-07-29T04:35:43;97067.19;;;23.28;99.65
56719;BME280;42597;40.636;0.278;2022-07-29T04:38:08;97069.59;;;23.26;100.00
56719;BME280;42597;40.636;0.278;2022-07-29T04:40:34;97068.19;;;23.67;97.62
56719;BME280;42597;40.636;0.278;2022-07-29T04:43:00;97064.00;;;24.20;93.28
56719;BME280;42597;40.636;0.278;2022-07-29T04:45:27;97063.75;;;24.56;90.27
56719;BME280;42597;40.636;0.278;2022-07-29T04:47:53;97063.31;;;24.71;89.06
56719;BME280;42597;40.636;0.278;2022-07-29T04:50:18;97072.25;;;24.62;89.20
56719;BME280;42597;40.636;0.278;2022-07-29T04:52:44;97069.47;;;24.49;89.89
56719;BME280;42597;40.636;0.278;2022-07-29T04:55:10;97072.91;;;24.79;88.09
56719;BME280;42597;40.636;0.278;2022-07-29T04:57:35;97074.13;;;24.78;87.21
56719;BME280;42597;40.636;0.278;2022-07-29T05:00:03;97073.03;;;24.75;87.53
56719;BME280;42597;40.636;0.278;2022-07-29T05:02:29;97078.44;;;24.79;87.16
56719;BME280;42597;40.636;0.278;2022-07-29T05:04:54;97067.94;;;24.99;85.70
56719;BME280;42597;40.636;0.278;2022-07-29T05:07:20;97077.00;;;24.87;86.29
56719;BME280;42597;40.636;0.278;2022-07-29T05:09:46;97076.13;;;24.90;86.44
56719;BME280;42597;40.636;0.278;2022-07-29T05:12:11;97077.56;;;24.95;85.88
56719;BME280;42597;40.636;0.278;2022-07-29T05:14:37;97081.88;;;24.83;86.95
56719;BME280;42597;40.636;0.278;2022-07-29T05:17:03;97081.31;;;24.88;85.99
56719;BME280;42597;40.636;0.278;2022-07-29T05:19:29;97075.25;;;24.93;85.80
56719;BME280;42597;40.636;0.278;2022-07-29T05:21:54;97084.53;;;24.99;84.95
56719;BME280;42597;40.636;0.278;2022-07-29T05:24:20;97084.75;;;24.92;85.75
56719;BME280;42597;40.636;0.278;2022-07-29T05:26:46;97082.75;;;24.80;86.39
56719;BME280;42597;40.636;0.278;2022-07-29T05:29:11;97082.09;;;24.89;86.06
56719;BME280;42597;40.636;0.278;2022-07-29T05:31:37;97084.53;;;24.99;85.32
56719;BME280;42597;40.636;0.278;2022-07-29T05:34:03;97087.13;;;24.39;88.82
56719;BME280;42597;40.636;0.278;2022-07-29T05:36:28;97084.81;;;24.08;92.19
56719;BME280;42597;40.636;0.278;2022-07-29T05:38:54;97086.94;;;24.72;87.95
56719;BME280;42597;40.636;0.278;2022-07-29T05:41:20;97095.59;;;24.74;87.76
56719;BME280;42597;40.636;0.278;2022-07-29T05:43:46;97106.38;;;24.68;88.06
56719;BME280;42597;40.636;0.278;2022-07-29T05:46:12;97106.19;;;24.88;86.61
56719;BME280;42597;40.636;0.278;2022-07-29T05:48:39;97100.22;;;24.77;87.59
56719;BME280;42597;40.636;0.278;2022-07-29T05:51:05;97103.75;;;24.65;88.95
56719;BME280;42597;40.636;0.278;2022-07-29T05:53:30;97114.16;;;24.86;87.91
56719;BME280;42597;40.636;0.278;2022-07-29T05:55:56;97111.94;;;25.06;85.79
56719;BME280;42597;40.636;0.278;2022-07-29T05:58:22;97101.88;;;25.38;83.75
56719;BME280;42597;40.636;0.278;2022-07-29T06:00:48;97109.31;;;25.41;83.10
56719;BME280;42597;40.636;0.278;2022-07-29T06:03:13;97101.19;;;25.47;84.54
56719;BME280;42597;40.636;0.278;2022-07-29T06:05:39;97103.78;;;25.16;86.77
56719;BME280;42597;40.636;0.278;2022-07-29T06:08:05;97103.88;;;25.12;87.57
56719;BME280;42597;40.636;0.278;2022-07-29T06:10:34;97108.41;;;25.31;84.92
56719;BME280;42597;40.636;0.278;2022-07-29T06:13:00;97103.56;;;25.23;85.13
56719;BME280;42597;40.636;0.278;2022-07-29T06:15:25;97115.28;;;25.27;84.96
56719;BME280;42597;40.636;0.278;2022-07-29T06:17:51;97112.75;;;25.20;85.76
56719;BME280;42597;40.636;0.278;2022-07-29T06:20:18;97119.03;;;25.07;86.33
56719;BME280;42597;40.636;0.278;2022-07-29T06:22:44;97118.81;;;24.89;88.01
56719;BME280;42597;40.636;0.278;2022-07-29T06:25:09;97118.91;;;24.98;87.16
56719;BME280;42597;40.636;0.278;2022-07-29T06:27:37;97117.78;;;24.83;88.90
56719;BME280;42597;40.636;0.278;2022-07-29T06:30:03;97113.16;;;24.80;89.42
56719;BME280;42597;40.636;0.278;2022-07-29T06:32:32;97125.13;;;25.15;85.96
56719;BME280;42597;40.636;0.278;2022-07-29T06:34:58;97122.59;;;25.21;85.88
56719;BME280;42597;40.636;0.278;2022-07-29T06:37:24;97128.00;;;25.24;85.55
56719;BME280;42597;40.636;0.278;2022-07-29T06:39:50;97127.34;;;25.33;85.33
56719;BME280;42597;40.636;0.278;2022-07-29T06:42:35;97136.75;;;25.23;85.94
56719;BME280;42597;40.636;0.278;2022-07-29T06:45:01;97130.31;;;25.39;84.89
56719;BME280;42597;40.636;0.278;2022-07-29T06:47:27;97141.94;;;25.33;85.20
56719;BME280;42597;40.636;0.278;2022-07-29T06:49:52;97140.25;;;25.36;85.23
56719;BME280;42597;40.636;0.278;2022-07-29T06:52:18;97136.81;;;25.45;84.57
56719;BME280;42597;40.636;0.278;2022-07-29T06:54:43;97134.16;;;25.54;83.67
56719;BME280;42597;40.636;0.278;2022-07-29T06:57:13;97142.34;;;25.45;84.36
56719;BME280;42597;40.636;0.278;2022-07-29T06:59:39;97141.59;;;25.44;84.53
56719;BME280;42597;40.636;0.278;2022-07-29T07:02:05;97138.59;;;25.51;84.34
56719;BME280;42597;40.636;0.278;2022-07-29T07:04:31;97140.47;;;25.54;84.28
56719;BME280;42597;40.636;0.278;2022-07-29T07:06:57;97139.72;;;25.54;84.71
56719;BME280;42597;40.636;0.278;2022-07-29T07:09:23;97139.59;;;25.57;83.98
56719;BME280;42597;40.636;0.278;2022-07-29T07:11:48;97146.44;;;25.66;84.02
56719;BME280;42597;40.636;0.278;2022-07-29T07:14:14;97144.56;;;25.63;83.88
56719;BME280;42597;40.636;0.278;2022-07-29T07:16:40;97148.56;;;25.62;83.74
56719;BME280;42597;40.636;0.278;2022-07-29T07:19:05;97151.63;;;25.64;83.64
56719;BME280;42597;40.636;0.278;2022-07-29T07:21:32;97142.44;;;25.67;83.70
56719;BME280;42597;40.636;0.278;2022-07-29T07:23:58;97145.09;;;25.83;81.88
56719;BME280;42597;40.636;0.278;2022-07-29T07:26:25;97146.97;;;25.73;82.82
56719;BME280;42597;40.636;0.278;2022-07-29T07:28:51;97148.63;;;25.71;82.95
56719;BME280;42597;40.636;0.278;2022-07-29T07:31:16;97145.09;;;25.83;82.03
56719;BME280;42597;40.636;0.278;2022-07-29T07:33:42;97152.38;;;25.77;82.79
56719;BME280;42597;40.636;0.278;2022-07-29T07:36:08;97149.72;;;25.86;82.38
56719;BME280;42597;40.636;0.278;2022-07-29T07:38:33;97150.31;;;25.81;81.87
56719;BME280;42597;40.636;0.278;2022-07-29T07:41:00;97150.00;;;26.01;81.83
56719;BME280;42597;40.636;0.278;2022-07-29T07:43:25;97153.97;;;25.78;82.40
56719;BME280;42597;40.636;0.278;2022-07-29T07:45:51;97157.03;;;25.80;82.36
56719;BME280;42597;40.636;0.278;2022-07-29T07:48:17;97155.41;;;26.04;80.93
56719;BME280;42597;40.636;0.278;2022-07-29T07:50:42;97154.38;;;25.89;81.75
56719;BME280;42597;40.636;0.278;2022-07-29T07:53:09;97163.00;;;25.91;81.71
56719;BME280;42597;40.636;0.278;2022-07-29T07:55:40;97160.31;;;26.00;80.87
56719;BME280;42597;40.636;0.278;2022-07-29T07:58:06;97175.38;;;25.99;80.84
56719;BME280;42597;40.636;0.278;2022-07-29T08:00:32;97163.66;;;25.95;81.18
56719;BME280;42597;40.636;0.278;2022-07-29T08:02:58;97167.22;;;25.83;81.52
56719;BME280;42597;40.636;0.278;2022-07-29T08:05:23;97168.66;;;25.88;81.15
56719;BME280;42597;40.636;0.278;2022-07-29T08:07:49;97168.13;;;25.80;81.60
56719;BME280;42597;40.636;0.278;2022-07-29T08:10:17;97178.88;;;26.13;80.90
56719;BME280;42597;40.636;0.278;2022-07-29T08:13:08;97182.63;;;25.84;81.15
56719;BME280;42597;40.636;0.278;2022-07-29T08:15:34;97174.56;;;26.12;79.49
56719;BME280;42597;40.636;0.278;2022-07-29T08:18:00;97183.50;;;25.94;80.54
56719;BME280;42597;40.636;0.278;2022-07-29T08:20:26;97184.72;;;25.80;81.04
56719;BME280;42597;40.636;0.278;2022-07-29T08:22:52;97185.25;;;25.88;80.35
56719;BME280;42597;40.636;0.278;2022-07-29T08:25:18;97185.16;;;25.91;80.20
56719;BME280;42597;40.636;0.278;2022-07-29T08:27:46;97189.06;;;26.16;78.96
56719;BME280;42597;40.636;0.278;2022-07-29T08:30:12;97198.91;;;25.82;80.21
56719;BME280;42597;40.636;0.278;2022-07-29T08:32:38;97196.75;;;25.99;79.23
56719;BME280;42597;40.636;0.278;2022-07-29T08:35:04;97196.13;;;26.17;78.77
56719;BME280;42597;40.636;0.278;2022-07-29T08:37:30;97196.41;;;26.09;78.91
56719;BME280;42597;40.636;0.278;2022-07-29T08:39:56;97196.56;;;25.93;79.73
56719;BME280;42597;40.636;0.278;2022-07-29T08:42:21;97180.06;;;25.90;79.80
56719;BME280;42597;40.636;0.278;2022-07-29T08:44:48;97187.84;;;25.82;80.00
56719;BME280;42597;40.636;0.278;2022-07-29T08:47:14;97182.88;;;26.46;78.13
56719;BME280;42597;40.636;0.278;2022-07-29T08:49:40;97190.44;;;25.98;79.11
56719;BME280;42597;40.636;0.278;2022-07-29T08:52:06;97193.06;;;26.15;79.74
56719;BME280;42597;40.636;0.278;2022-07-29T08:54:32;97190.53;;;26.42;78.80
56719;BME280;42597;40.636;0.278;2022-07-29T08:56:59;97194.34;;;26.23;78.29
56719;BME280;42597;40.636;0.278;2022-07-29T08:59:27;97187.34;;;26.66;76.04
56719;BME280;42597;40.636;0.278;2022-07-29T09:01:56;97182.03;;;26.58;76.94
56719;BME280;42597;40.636;0.278;2022-07-29T09:04:27;97189.75;;;26.42;76.92
56719;BME280;42597;40.636;0.278;2022-07-29T09:06:57;97191.25;;;27.08;74.42
56719;BME280;42597;40.636;0.278;2022-07-29T09:09:24;97191.84;;;27.03;74.22
56719;BME280;42597;40.636;0.278;2022-07-29T09:11:50;97189.13;;;26.60;76.79
56719;BME280;42597;40.636;0.278;2022-07-29T09:14:16;97198.03;;;26.20;78.23
56719;BME280;42597;40.636;0.278;2022-07-29T09:16:56;97194.75;;;26.34;77.31
56719;BME280;42597;40.636;0.278;2022-07-29T09:19:30;97185.94;;;26.92;75.23
56719;BME280;42597;40.636;0.278;2022-07-29T09:21:57;97201.69;;;26.95;74.50
56719;BME280;42597;40.636;0.278;2022-07-29T09:24:24;97202.75;;;26.32;77.76
56719;BME280;42597;40.636;0.278;2022-07-29T09:26:51;97202.59;;;26.14;78.82
56719;BME280;42597;40.636;0.278;2022-07-29T09:29:23;97214.22;;;26.21;78.48
56719;BME280;42597;40.636;0.278;2022-07-29T09:31:51;97214.25;;;26.65;75.86
56719;BME280;42597;40.636;0.278;2022-07-29T09:34:23;97206.44;;;26.73;76.73
56719;BME280;42597;40.636;0.278;2022-07-29T09:36:51;97215.53;;;26.95;75.20
56719;BME280;42597;40.636;0.278;2022-07-29T09:39:27;97215.50;;;26.86;76.23
56719;BME280;42597;40.636;0.278;2022-07-29T09:41:56;97217.28;;;26.80;75.84
56719;BME280;42597;40.636;0.278;2022-07-29T09:44:23;97218.06;;;26.58;76.08
56719;BME280;42597;40.636;0.278;2022-07-29T09:47:00;97219.56;;;26.50;76.52
56719;BME280;42597;40.636;0.278;2022-07-29T09:49:34;97216.19;;;26.55;76.64
56719;BME280;42597;40.636;0.278;2022-07-29T09:52:04;97222.66;;;27.05;74.61
56719;BME280;42597;40.636;0.278;2022-07-29T09:54:30;97225.66;;;26.89;76.55
56719;BME280;42597;40.636;0.278;2022-07-29T09:57:02;97227.09;;;27.16;74.07
56719;BME280;42597;40.636;0.278;2022-07-29T09:59:29;97219.75;;;27.31;73.35
56719;BME280;42597;40.636;0.278;2022-07-29T10:01:55;97226.63;;;26.95;77.45
56719;BME280;42597;40.636;0.278;2022-07-29T10:04:21;97222.34;;;27.25;78.49
56719;BME280;42597;40.636;0.278;2022-07-29T10:07:01;97230.34;;;27.01;79.74
56719;BME280;42597;40.636;0.278;2022-07-29T10:09:27;97237.00;;;27.26;78.28
56719;BME280;42597;40.636;0.278;2022-07-29T10:12:23;97230.34;;;27.01;79.38
56719;BME280;42597;40.636;0.278;2022-07-29T10:14:50;97227.72;;;27.51;77.47
56719;BME280;42597;40.636;0.278;2022-07-29T10:17:17;97232.94;;;27.49;77.76
56719;BME280;42597;40.636;0.278;2022-07-29T10:19:43;97236.03;;;27.20;80.47
56719;BME280;42597;40.636;0.278;2022-07-29T10:22:10;97232.47;;;26.97;82.02
56719;BME280;42597;40.636;0.278;2022-07-29T10:24:38;97238.56;;;26.83;83.08
56719;BME280;42597;40.636;0.278;2022-07-29T10:27:06;97233.47;;;27.03;81.70
56719;BME280;42597;40.636;0.278;2022-07-29T10:29:32;97235.75;;;27.18;81.56
56719;BME280;42597;40.636;0.278;2022-07-29T10:32:06;97240.69;;;27.23;80.97
56719;BME280;42597;40.636;0.278;2022-07-29T10:34:36;97229.25;;;27.21;80.62
56719;BME280;42597;40.636;0.278;2022-07-29T10:37:23;97234.53;;;27.28;80.90
56719;BME280;42597;40.636;0.278;2022-07-29T10:40:15;97234.78;;;26.90;80.39
56719;BME280;42597;40.636;0.278;2022-07-29T10:43:28;97230.44;;;27.11;82.77
56719;BME280;42597;40.636;0.278;2022-07-29T10:45:58;97236.69;;;26.80;81.43
56719;BME280;42597;40.636;0.278;2022-07-29T10:48:24;97231.72;;;27.19;80.28
56719;BME280;42597;40.636;0.278;2022-07-29T10:53:23;97232.91;;;27.40;78.33
56719;BME280;42597;40.636;0.278;2022-07-29T10:55:51;97232.91;;;27.80;77.04
56719;BME280;42597;40.636;0.278;2022-07-29T10:58:19;97227.84;;;27.47;76.68
56719;BME280;42597;40.636;0.278;2022-07-29T11:00:49;97232.66;;;28.05;73.96
56719;BME280;42597;40.636;0.278;2022-07-29T11:06:07;97238.09;;;27.69;76.19
56719;BME280;42597;40.636;0.278;2022-07-29T11:08:33;97232.63;;;27.87;74.64
56719;BME280;42597;40.636;0.278;2022-07-29T11:11:31;97233.41;;;27.47;76.33
56719;BME280;42597;40.636;0.278;2022-07-29T11:13:57;97228.53;;;28.28;71.07
56719;BME280;42597;40.636;0.278;2022-07-29T11:16:23;97222.78;;;28.04;73.57
56719;BME280;42597;40.636;0.278;2022-07-29T11:21:37;97221.63;;;28.42;71.50
56719;BME280;42597;40.636;0.278;2022-07-29T11:24:17;97226.44;;;29.30;67.83
56719;BME280;42597;40.636;0.278;2022-07-29T11:26:43;97224.06;;;28.68;73.08
56719;BME280;42597;40.636;0.278;2022-07-29T11:29:21;97218.84;;;28.51;73.31
56719;BME280;42597;40.636;0.278;2022-07-29T11:31:52;97220.91;;;28.01;75.78
56719;BME280;42597;40.636;0.278;2022-07-29T11:34:27;97220.38;;;28.43;72.08
56719;BME280;42597;40.636;0.278;2022-07-29T11:39:47;97227.81;;;28.46;71.75
56719;BME280;42597;40.636;0.278;2022-07-29T11:44:57;97219.88;;;29.00;70.24
56719;BME280;42597;40.636;0.278;2022-07-29T11:47:25;97233.31;;;29.01;69.22
56719;BME280;42597;40.636;0.278;2022-07-29T11:49:53;97222.44;;;29.31;67.72
56719;BME280;42597;40.636;0.278;2022-07-29T11:52:20;97226.34;;;28.05;71.56
56719;BME280;42597;40.636;0.278;2022-07-29T11:54:50;97224.19;;;27.60;75.54
56719;BME280;42597;40.636;0.278;2022-07-29T11:57:18;97218.22;;;28.47;71.75
56719;BME280;42597;40.636;0.278;2022-07-29T11:59:46;97220.69;;;28.36;71.39
56719;BME280;42597;40.636;0.278;2022-07-29T12:02:13;97227.28;;;28.20;72.79
56719;BME280;42597;40.636;0.278;2022-07-29T12:04:52;97219.28;;;28.41;71.00
56719;BME280;42597;40.636;0.278;2022-07-29T12:07:18;97227.47;;;28.53;69.79
56719;BME280;42597;40.636;0.278;2022-07-29T12:09:51;97229.38;;;27.48;74.38
56719;BME280;42597;40.636;0.278;2022-07-29T12:12:17;97217.25;;;28.32;70.66
56719;BME280;42597;40.636;0.278;2022-07-29T12:14:44;97220.84;;;28.60;69.50
56719;BME280;42597;40.636;0.278;2022-07-29T12:17:32;97217.56;;;28.34;71.39
56719;BME280;42597;40.636;0.278;2022-07-29T12:20:01;97223.13;;;28.80;68.73
56719;BME280;42597;40.636;0.278;2022-07-29T12:22:33;97224.53;;;27.71;73.21
56719;BME280;42597;40.636;0.278;2022-07-29T12:25:10;97226.97;;;28.09;71.33
56719;BME280;42597;40.636;0.278;2022-07-29T12:27:37;97232.78;;;27.84;72.06
56719;BME280;42597;40.636;0.278;2022-07-29T12:30:12;97242.00;;;28.48;69.77
56719;BME280;42597;40.636;0.278;2022-07-29T12:32:44;97236.16;;;28.46;69.87
56719;BME280;42597;40.636;0.278;2022-07-29T12:37:38;97236.13;;;28.37;70.92
56719;BME280;42597;40.636;0.278;2022-07-29T12:40:06;97238.72;;;28.32;70.70
56719;BME280;42597;40.636;0.278;2022-07-29T12:42:33;97241.03;;;28.15;70.45
56719;BME280;42597;40.636;0.278;2022-07-29T12:44:59;97233.66;;;28.39;70.20
56719;BME280;42597;40.636;0.278;2022-07-29T12:47:24;97244.47;;;28.37;70.72
56719;BME280;42597;40.636;0.278;2022-07-29T12:49:52;97241.66;;;28.28;70.69
56719;BME280;42597;40.636;0.278;2022-07-29T12:52:34;97237.31;;;28.09;71.03
56719;BME280;42597;40.636;0.278;2022-07-29T12:55:00;97242.75;;;27.72;73.50
56719;BME280;42597;40.636;0.278;2022-07-29T12:57:26;97238.38;;;27.62;73.13
56719;BME280;42597;40.636;0.278;2022-07-29T13:00:22;97240.50;;;27.98;72.11
56719;BME280;42597;40.636;0.278;2022-07-29T13:02:57;97225.94;;;28.43;70.10
56719;BME280;42597;40.636;0.278;2022-07-29T13:05:23;97229.03;;;28.55;69.58
56719;BME280;42597;40.636;0.278;2022-07-29T13:07:50;97236.88;;;28.38;69.97
56719;BME280;42597;40.636;0.278;2022-07-29T13:10:22;97229.31;;;28.66;68.89
56719;BME280;42597;40.636;0.278;2022-07-29T13:13:05;97224.69;;;28.53;69.24
56719;BME280;42597;40.636;0.278;2022-07-29T13:15:32;97224.50;;;28.11;72.01
56719;BME280;42597;40.636;0.278;2022-07-29T13:17:58;97228.75;;;27.44;74.08
56719;BME280;42597;40.636;0.278;2022-07-29T13:20:25;97219.00;;;27.71;74.10
56719;BME280;42597;40.636;0.278;2022-07-29T13:22:53;97235.63;;;28.29;71.21
56719;BME280;42597;40.636;0.278;2022-07-29T13:25:30;97253.06;;;28.12;72.64
56719;BME280;42597;40.636;0.278;2022-07-29T13:27:57;97257.94;;;27.89;75.75
56719;BME280;42597;40.636;0.278;2022-07-29T13:30:24;97247.28;;;27.78;74.54
56719;BME280;42597;40.636;0.278;2022-07-29T13:32:51;97236.78;;;27.42;76.48
56719;BME280;42597;40.636;0.278;2022-07-29T13:35:17;97222.97;;;27.70;76.81